jamsasäät
Date & Time Temp Press WDD WDS RH PM10 Temp Press SO2
  °C atm Deg m/s % µg/m3 °C atm µg/m3
22.02.2020 03:00 NoData NoData NoData NoData NoData NoData NoData NoData NoData
22.02.2020 02:00 NoData NoData NoData NoData NoData NoData NoData NoData NoData
22.02.2020 01:00 NoData NoData NoData NoData NoData NoData NoData NoData NoData
21.02.2020 24:00 NoData NoData NoData NoData NoData NoData NoData NoData NoData
21.02.2020 23:00 NoData NoData NoData NoData NoData NoData NoData NoData NoData
21.02.2020 22:00 NoData NoData Samp< Samp< Samp< NoData Samp< Samp< NoData
21.02.2020 21:00 NoData NoData 229 2.3 78 NoData 3.1 986.868 NoData
21.02.2020 20:00 NoData NoData 231 2.7 80 NoData 3.0 986.363 NoData
21.02.2020 19:00 NoData NoData 197 3.2 80 NoData 3.1 985.749 NoData
21.02.2020 18:00 NoData NoData 182 3.8 81 NoData 2.7 985.560 NoData
21.02.2020 17:00 NoData NoData 173 4.5 80 NoData 2.6 985.522 NoData
21.02.2020 16:00 NoData NoData 174 4.5 81 NoData 2.3 985.848 NoData
21.02.2020 15:00 NoData NoData 171 4.5 80 NoData 2.3 986.081 NoData
21.02.2020 14:00 NoData NoData 170 4.5 82 NoData 1.9 986.293 NoData
21.02.2020 13:00 NoData NoData 170 4.0 81 NoData 1.8 986.767 NoData
21.02.2020 12:00 NoData NoData 169 3.7 81 NoData 1.5 987.090 NoData
21.02.2020 11:00 NoData NoData 158 3.6 84 NoData 0.9 987.445 NoData
21.02.2020 10:00 NoData NoData 159 4.1 84 NoData 0.8 987.739 NoData
21.02.2020 09:00 NoData NoData 159 4.2 84 NoData 0.6 988.049 NoData
21.02.2020 08:00 NoData NoData 160 3.8 84 NoData 0.6 988.538 NoData
21.02.2020 07:00 NoData NoData 165 4.0 79 NoData 1.3 989.056 NoData
21.02.2020 06:00 NoData NoData 172 4.5 72 NoData 2.1 989.889 NoData
21.02.2020 05:00 NoData NoData 170 4.4 72 NoData 1.8 990.625 NoData
21.02.2020 04:00 NoData NoData 172 4.3 73 NoData 1.5 991.597 NoData
21.02.2020 03:00 NoData NoData 169 4.1 75 NoData 1.0 992.611 NoData
21.02.2020 02:00 NoData NoData 160 3.4 77 NoData 0.1 993.605 NoData
21.02.2020 01:00 NoData NoData 159 3.3 78 NoData -0.4 994.656 NoData
20.02.2020 24:00 NoData NoData 158 3.3 77 NoData -1.0 995.799 NoData
20.02.2020 23:00 NoData NoData 165 3.2 78 NoData -1.8 996.723 NoData
20.02.2020 22:00 NoData NoData 164 2.9 79 NoData -2.6 997.528 NoData
20.02.2020 21:00 NoData NoData 154 2.3 77 NoData -3.0 998.391 NoData
20.02.2020 20:00 NoData NoData 138 1.7 76 NoData -3.1 999.346 NoData
20.02.2020 19:00 NoData NoData 149 1.2 73 NoData -2.8 1000.034 NoData
20.02.2020 18:00 NoData NoData 175 1.6 71 NoData -2.8 1000.334 NoData
20.02.2020 17:00 NoData NoData 176 2.6 70 NoData -3.0 1000.741 NoData
20.02.2020 16:00 NoData NoData 194 2.2 69 NoData -3.0 1000.893 NoData
20.02.2020 15:00 NoData NoData 202 1.7 68 NoData -2.8 1001.272 NoData
20.02.2020 14:00 NoData NoData 212 1.7 67 NoData -2.9 1001.350 NoData
20.02.2020 13:00 NoData NoData 178 1.4 67 NoData -3.3 1001.358 NoData
20.02.2020 12:00 NoData NoData 179 1.1 68 NoData -3.5 1001.452 NoData
20.02.2020 11:00 NoData NoData 197 1.2 68 NoData -3.6 1000.899 NoData
20.02.2020 10:00 NoData NoData 144 1.0 69 NoData -3.6 1000.703 NoData
20.02.2020 09:00 NoData NoData 132 0.6 69 NoData -3.7 1000.167 NoData
20.02.2020 08:00 NoData NoData 312 1.0 71 NoData -3.7 999.510 NoData
20.02.2020 07:00 NoData NoData 342 1.0 71 NoData -3.7 998.972 NoData
20.02.2020 06:00 NoData NoData 87 0.9 72 NoData -3.7 998.336 NoData
20.02.2020 05:00 NoData NoData 118 1.2 74 NoData -3.6 997.618 NoData
20.02.2020 04:00 NoData NoData 94 1.1 75 NoData -3.6 996.731 NoData
20.02.2020 03:00 NoData NoData 203 1.5 76 NoData -3.4 995.697 NoData
20.02.2020 02:00 NoData NoData 165 0.7 76 NoData -2.9 994.773 NoData
20.02.2020 01:00 NoData NoData 300 0.9 75 NoData -2.2 993.974 NoData
19.02.2020 24:00 NoData NoData 156 0.7 72 NoData -1.4 992.858 NoData
19.02.2020 23:00 NoData NoData 284 0.8 68 NoData -0.4 991.930 NoData
19.02.2020 22:00 NoData NoData 179 0.7 68 NoData -0.2 990.967 NoData
19.02.2020 21:00 NoData NoData 306 1.6 71 NoData 0.2 990.009 NoData
19.02.2020 20:00 NoData NoData 311 1.8 76 NoData 0.8 988.888 NoData
19.02.2020 19:00 NoData NoData 306 1.1 78 NoData 1.2 987.926 NoData
19.02.2020 18:00 NoData NoData 284 1.4 78 NoData 1.6 986.985 NoData
19.02.2020 17:00 NoData NoData 260 1.3 71 NoData 2.7 986.092 NoData
19.02.2020 16:00 NoData NoData 277 2.0 71 NoData 2.7 985.407 NoData
19.02.2020 15:00 NoData NoData 273 2.0 72 NoData 2.5 984.758 NoData
19.02.2020 14:00 NoData NoData 265 2.2 72 NoData 2.4 984.025 NoData
19.02.2020 13:00 NoData NoData 256 2.0 73 NoData 2.3 983.414 NoData
19.02.2020 12:00 NoData NoData 267 2.5 74 NoData 2.1 982.824 NoData
19.02.2020 11:00 NoData NoData 268 2.5 75 NoData 1.8 982.157 NoData
19.02.2020 10:00 NoData NoData 259 2.1 76 NoData 1.6 981.410 NoData
19.02.2020 09:00 NoData NoData 255 1.9 77 NoData 1.6 980.806 NoData
19.02.2020 08:00 NoData NoData 262 2.2 76 NoData 1.9 980.104 NoData
19.02.2020 07:00 NoData NoData 254 1.8 76 NoData 2.2 979.444 NoData
19.02.2020 06:00 NoData NoData 258 2.2 75 NoData 2.6 978.962 NoData
19.02.2020 05:00 NoData NoData 250 2.0 73 NoData 3.2 978.540 NoData
19.02.2020 04:00 NoData NoData 256 2.4 72 NoData 3.8 978.146 NoData
19.02.2020 03:00 NoData NoData 248 2.1 73 NoData 3.9 977.878 NoData
19.02.2020 02:00 NoData NoData 229 1.8 73 NoData 4.2 977.829 NoData
19.02.2020 01:00 NoData NoData 230 2.0 75 NoData 4.0 977.714 NoData
18.02.2020 24:00 NoData NoData 224 1.8 77 NoData 3.8 977.712 NoData
18.02.2020 23:00 NoData NoData 224 2.0 78 NoData 3.8 977.609 NoData
18.02.2020 22:00 NoData NoData 208 1.8 76 NoData 4.2 977.647 NoData
18.02.2020 21:00 NoData NoData 222 1.9 71 NoData 4.7 977.524 NoData
18.02.2020 20:00 NoData NoData 204 1.5 69 NoData 4.9 977.236 NoData
18.02.2020 19:00 NoData NoData 230 1.9 67 NoData 5.1 977.014 NoData
18.02.2020 18:00 NoData NoData 254 2.2 65 NoData 5.2 976.730 NoData
18.02.2020 17:00 NoData NoData 249 1.9 68 NoData 5.1 976.769 NoData
18.02.2020 16:00 NoData NoData 246 2.2 65 NoData 5.5 976.557 NoData
18.02.2020 15:00 NoData NoData 243 2.2 65 NoData 5.6 976.524 NoData
18.02.2020 14:00 NoData NoData 260 2.9 65 NoData 5.6 976.232 NoData
18.02.2020 13:00 NoData NoData 250 3.3 66 NoData 5.5 975.724 NoData
18.02.2020 12:00 NoData NoData 258 3.1 68 NoData 5.2 975.333 NoData
18.02.2020 11:00 NoData NoData 266 3.2 71 NoData 4.5 974.673 NoData
18.02.2020 10:00 NoData NoData 253 2.7 74 NoData 3.8 973.771 NoData
18.02.2020 09:00 NoData NoData 255 2.1 75 NoData 3.7 972.731 NoData
18.02.2020 08:00 NoData NoData 258 2.4 76 NoData 4.2 971.754 NoData
18.02.2020 07:00 NoData NoData 265 3.4 77 NoData 4.4 970.728 NoData
18.02.2020 06:00 NoData NoData 253 3.1 80 NoData 4.1 969.886 NoData
18.02.2020 05:00 NoData NoData 228 3.1 81 NoData 4.1 969.234 NoData
18.02.2020 04:00 NoData NoData 207 3.1 81 NoData 4.1 969.501 NoData
18.02.2020 03:00 NoData NoData 206 3.1 81 NoData 4.0 969.929 NoData
18.02.2020 02:00 NoData NoData 212 3.1 81 NoData 3.9 970.355 NoData
18.02.2020 01:00 NoData NoData 214 3.0 79 NoData 4.0 970.821 NoData
17.02.2020 24:00 NoData NoData 229 3.4 73 NoData 4.5 971.199 NoData
17.02.2020 23:00 NoData NoData 237 3.2 71 NoData 4.6 971.415 NoData
17.02.2020 22:00 NoData NoData 244 3.4 70 NoData 4.7 971.438 NoData
17.02.2020 21:00 NoData NoData 236 2.6 71 NoData 4.6 971.607 NoData
17.02.2020 20:00 NoData NoData 219 2.4 77 NoData 4.0 971.616 NoData
17.02.2020 19:00 NoData NoData 222 2.6 78 NoData 3.9 971.370 NoData
17.02.2020 18:00 NoData NoData 230 2.4 80 NoData 3.8 971.280 NoData
17.02.2020 17:00 NoData NoData 254 3.4 75 NoData 4.4 971.060 NoData
17.02.2020 16:00 NoData NoData 248 2.7 76 NoData 4.2 970.417 NoData
17.02.2020 15:00 NoData NoData 251 2.6 77 NoData 4.1 969.904 NoData
17.02.2020 14:00 NoData NoData 262 3.0 73 NoData 4.2 969.250 NoData
17.02.2020 13:00 NoData NoData 266 3.3 73 NoData 3.9 968.744 NoData
17.02.2020 12:00 NoData NoData 266 3.9 73 NoData 3.8 968.042 NoData
17.02.2020 11:00 NoData NoData 268 4.1 74 NoData 3.7 967.153 NoData
17.02.2020 10:00 NoData NoData 261 3.4 75 NoData 3.6 966.539 NoData
17.02.2020 09:00 NoData NoData 241 2.6 74 NoData 3.6 966.018 NoData
17.02.2020 08:00 NoData NoData 241 2.3 70 NoData 4.0 965.692 NoData
17.02.2020 07:00 NoData NoData 237 2.3 70 NoData 4.5 965.777 NoData
17.02.2020 06:00 NoData NoData 233 2.0 74 NoData 5.2 965.738 NoData
17.02.2020 05:00 NoData NoData 243 2.7 75 NoData 5.7 966.121 NoData
17.02.2020 04:00 NoData NoData 237 2.8 76 NoData 6.0 966.431 NoData
17.02.2020 03:00 NoData NoData 239 2.8 77 NoData 6.4 966.805 NoData
17.02.2020 02:00 NoData NoData 228 3.1 78 NoData 6.6 967.078 NoData
17.02.2020 01:00 NoData NoData 222 3.5 82 NoData 6.2 967.629 NoData
16.02.2020 24:00 NoData NoData 200 3.4 83 NoData 5.6 967.962 NoData
16.02.2020 23:00 NoData NoData 194 3.7 82 NoData 5.4 968.874 NoData
16.02.2020 22:00 NoData NoData 193 4.0 81 NoData 5.1 969.770 NoData
16.02.2020 21:00 NoData NoData 181 4.5 83 NoData 4.5 970.620 NoData
16.02.2020 20:00 NoData NoData 183 4.5 82 NoData 4.3 972.180 NoData
16.02.2020 19:00 NoData NoData 172 5.4 81 NoData 4.0 973.159 NoData
16.02.2020 18:00 NoData NoData 165 4.8 83 NoData 3.2 975.307 NoData
16.02.2020 17:00 NoData NoData 168 5.2 83 NoData 3.2 977.368 NoData
16.02.2020 16:00 NoData NoData 171 5.0 82 NoData 3.2 979.330 NoData
16.02.2020 15:00 NoData NoData 175 4.7 81 NoData 3.0 981.050 NoData
16.02.2020 14:00 NoData NoData 170 4.7 82 NoData 2.7 982.124 NoData
16.02.2020 13:00 NoData NoData 172 4.8 83 NoData 2.4 983.391 NoData
16.02.2020 12:00 NoData NoData 159 4.5 83 NoData 2.0 984.341 NoData
16.02.2020 11:00 NoData NoData 153 4.3 84 NoData 1.9 986.070 NoData
16.02.2020 10:00 NoData NoData 161 4.6 84 NoData 2.4 987.324 NoData
16.02.2020 09:00 NoData NoData 153 3.6 85 NoData 2.2 988.486 NoData
16.02.2020 08:00 NoData NoData 150 2.8 84 NoData 2.0 990.478 NoData
16.02.2020 07:00 NoData NoData 150 2.4 84 NoData 1.9 991.800 NoData
16.02.2020 06:00 NoData NoData 149 2.0 83 NoData 1.9 992.979 NoData
16.02.2020 05:00 NoData NoData 156 2.1 83 NoData 1.9 993.895 NoData
16.02.2020 04:00 NoData NoData 159 1.6 83 NoData 2.1 994.286 NoData
16.02.2020 03:00 NoData NoData 200 1.1 83 NoData 2.2 994.715 NoData
16.02.2020 02:00 NoData NoData 236 1.0 83 NoData 2.1 994.677 NoData
16.02.2020 01:00 NoData NoData 201 1.0 83 NoData 1.9 994.615 NoData
15.02.2020 24:00 NoData NoData 196 1.2 83 NoData 1.7 994.720 NoData
15.02.2020 23:00 NoData NoData 244 1.5 83 NoData 1.7 994.510 NoData
15.02.2020 22:00 NoData NoData 225 1.3 82 NoData 1.5 994.033 NoData
15.02.2020 21:00 NoData NoData 224 1.1 83 NoData 1.4 994.045 NoData
15.02.2020 20:00 NoData NoData 226 1.4 83 NoData 1.5 994.169 NoData
15.02.2020 19:00 NoData NoData 204 1.5 83 NoData 1.5 994.138 NoData
15.02.2020 18:00 NoData NoData 196 1.8 83 NoData 1.4 994.189 NoData
15.02.2020 17:00 NoData NoData 187 2.3 83 NoData 1.3 994.387 NoData
15.02.2020 16:00 NoData NoData 177 3.0 83 NoData 1.0 994.832 NoData
15.02.2020 15:00 NoData NoData 178 3.1 84 NoData 0.8 995.708 NoData
15.02.2020 14:00 NoData NoData 174 3.8 84 NoData 0.7 996.619 NoData
15.02.2020 13:00 NoData NoData 167 3.7 83 NoData 0.6 997.594 NoData
15.02.2020 12:00 NoData NoData 171 3.6 80 NoData 0.7 998.628 NoData
15.02.2020 11:00 NoData NoData 172 3.3 79 NoData 0.1 999.618 NoData
15.02.2020 10:00 NoData NoData 156 2.4 80 NoData -0.6 1000.288 NoData
15.02.2020 09:00 NoData NoData 156 2.3 81 NoData -1.2 1001.099 NoData
15.02.2020 08:00 NoData NoData 162 2.3 81 NoData -1.8 1002.129 NoData
15.02.2020 07:00 NoData NoData 163 1.9 81 NoData -2.4 1002.862 NoData
15.02.2020 06:00 NoData NoData 173 2.0 80 NoData -2.6 1003.315 NoData
15.02.2020 05:00 NoData NoData 128 1.2 82 NoData -3.7 1003.798 NoData
15.02.2020 04:00 NoData NoData 121 1.2 83 NoData -4.3 1004.510 NoData